Aviation WX Report

Aviation WX Report (1)

                                                                                                   GENERAL AVIATION FORECAST ST. MAARTEN

 

DATE ISSUED: June 25,  2017        VALID TIME: 12:00 -24:00Z

AREA OF COVERAGE: TNCM TMA (Bounded by 18.25N 063.39W, 18.25N 062.51W, 17.47N 062.22W, 17.26N 062.53W, 17.36N 063.39W AND 18.25N 063.39W)

LEVELS OF COVERAGE: MSL TO FL100

SIG. WX: SHRA, POSS. TS

SIG. CLDS: FEW CB 1600-1900FT
BKN TCU BASE 1700-2200 FT

SFC. VIS: 10 KM, 5 KM IN SHRA

 
 
FCST WNDS/TEMP ALOFT: 25/18:00Z

 

LEVEL

WINDS

TEMP

0500 FT

090/20KT

+26

1000 FT

090/20KT

+24

2000 FT

090/20KT

+22

3000 FT

100/20KT

+20

FL050

110/20KT

+19

FL080

100/20KT

+13

FL100

120/20KT

+09

 

FZL: ABOVE FL100

SPECIAL FEATURES: NONE

 

TAF:

 

TNCM 251120Z 2512/2612 09011KT P6SM SCT018 TEMPO 2512/2514 BKN030
FM251400 13012KT P6SM VCSH SCT018 SCT040 FM252300 07008KT P6SM VCSH SCT018 BKN080

 

FORECASTER: GORDON

 

Meteorological Department St. Maarten

Airport Rd. # 69, Simpson Bay (1-721) 545-2024 or (1-721) 545-4226 Fax: (1-721) 545-2998
E-Mail: This email address is being protected from spambots. You need JavaScript enabled to view it.

 

 

 

 

TNCM 251739Z 2518/2618 09013KT P6SM VCSH FEW020
     FM252000 08008KT P6SM VCSH SCT018 BKN080
     FM261000 10013KT P6SM FEW020
TAF TAPA 251700Z 2518/2618 10013KT 9999 BKN018 BKN036
     PROB40 TEMPO 2518/2524 11015G25KT 4800 SHRA BKN014
     PROB40 TEMPO 2520/2524 TSRA SCT013CB BKN014
TAF TFFR 251700Z 2518/2618 08012KT 9999 BKN026 BKN048
     TEMPO 2518/2604 3000 SHRA SCT015TCU BKN020
     PROB30 TEMPO 2518/2521 12016G30KT 1000 TSRA SCT012CB BKN015TCU
     BECMG 2604/2606 SCT025 SCT050
     FM261300 09012KT 9999 SCT030
TJSJ 251739Z 2518/2618 07017G22KT P6SM FEW030 SCT120
     FM252300 09010KT P6SM VCSH SCT022 BKN060
     FM261400 07016KT P6SM SCT025
TAF TXKF 251731Z 2518/2618 22008KT 9999 FEW020 SCT150 BKN300
TAF LPAZ 251700Z 2518/2624 28008KT 9999 SCT020
     BECMG 2602/2605 SCT012
     TEMPO 2605/2610 BKN008
     BECMG 2610/2612 28013KT SCT008 BKN015
TAF LPLA 251707Z 2518/2618 27008KT 9999 FEW020 SCT030
     PROB40 TEMPO 2602/2618 7000 -RA SCT015 BKN020
     BECMG 2608/2610 31012KT
17.36N 63.40W and 18.30N 63.40W).
Levels of Coverage: MSL to FL100.
SIG WX: ISOL SHRA.
SIG CLDS: FEW TCU 1000 - 1500FT AND TOPS ABV FL100.
SCT/ BKN LYR SC/AC 2000 - 3500FT AND TOPS ABV FL100.
SFC VIS: 10+ KM, 3 - 7 KM IN SHRA.
FCST WNDS/TEMP ALOFT: 14/ 18:00Z
0500 FT.. 200/10KT +26 FL050.....220/10KT +16
1000 FT.. 200/10KT +24 FL080.....220/05KT +11
2000 FT.. 210/15KT +22 FL100.....200/10KT +08
3000 FT.. 210/15KT +19
FZL: ABV FL100.
SPECIAL FEATURES:
NONE.
TAFS:
TAF TNCM 141200Z 1412/1512 14012KT P6SM VCSH BKN018 BKN035
FM141800 21008KT P6SM VCSH SCT022 SCT050=
Forecaster: DJF.

Save

Save

Save

Save

Save

Save

Save

Save

Save

Save

Save

Save

Save

Save

Save

Save

Save

Save

Save

Save

Save

Save

Save

Save

Save

Save

Save

Save

Save

Save

Save

Save

Save

Save

Save

Save

Save

Save

Save

Save

Save

Save

Save

Save

Save

Save

Save

Save

Save

Save

Save

Save

Save

Save

Save

Save

Save

Save

Save

Save

Save

Save

Save

Save

Save

Save

Save

Save

Save

Save

Save

Save

Save

Save

Save

Save

Save

Save

Save

Save

Save

Save

Save

Save

Save

Save

Save

Save

Save

Save

Save

Save

Save

Save

Save

Save

Save

Save

Save

Save

Save

Save

Save

Save

Save

Save

Save

Save

Save

Save

Save

Save

Save

Save

Save

Save

Save

Save

Save

Save

Save

Save

Save

Save

Save

Save

Save

Save

Save

Save

Save

Save

Save

Save

Save

Save

Save

Save

Save

International News

Go to top